»·PEaware :: N235B KBUR-KLAS

N235B :: KBUR-KLAS

FLIGHT INFORMATION

Flight Status: Arrived
Operator: Privately registered:
United States
More flights under this callsign
Pilot: Jason D. (29273)
Aircraft: BEECH AIRCRAFT SUPER KING AIR 350
(B350)
More flights by this aircraft type
Origin: KBUR Bob Hope-Burbank
United States
Destination: KLAS McCarran Intl
United States
More flights between these airports :: More routes between these airports
Route: +VVERA2 DAG CRESO4
File this flight plan on PilotEdge
Remarks:
Altitude:
(Current/Filed)
24,000ft
Speed:
(Current/Filed)
220kts
Departed: 05-Oct-20 01:31 PM
Arrived: 05-Oct-20 02:46 PM
Distance/Time
Traveled:
193nm/1:14
Distance/Time
To Go:
Arrived

Flight Plot

Page will automatically refresh every two minutes.

Flight plan parsing failed; only flown route is shown


Map Options




Map Legend


Flown Route
Filed Route
Departure Airport
Arrival Airport
Navaid (VOR, NDB)
Fix

Horizontal Profiles

Position Reports

Time Latitude Longitude Heading Altitude Ground
Speed
05-Oct-20 13:15 34.200092 -118.358775 77 722ft 0kts
05-Oct-20 13:16 34.200092 -118.358775 77 722ft 0kts
05-Oct-20 13:17 34.200092 -118.358775 77 722ft 0kts
05-Oct-20 13:18 34.200092 -118.358775 77 722ft 0kts
05-Oct-20 13:19 34.200092 -118.358775 77 722ft 0kts
05-Oct-20 13:20 34.200092 -118.358775 77 722ft 0kts
05-Oct-20 13:21 34.200092 -118.358775 77 722ft 0kts
05-Oct-20 13:22 34.200092 -118.358775 77 722ft 0kts
05-Oct-20 13:23 34.200092 -118.358775 77 722ft 0kts
05-Oct-20 13:24 34.200092 -118.358775 77 722ft 0kts
05-Oct-20 13:25 34.203007 -118.359054 348 732ft 11kts
05-Oct-20 13:26 34.209456 -118.360683 42 770ft 0kts
05-Oct-20 13:27 34.209465 -118.360670 48 770ft 0kts
05-Oct-20 13:28 34.209484 -118.360620 70 770ft 4kts
05-Oct-20 13:29 34.209212 -118.359561 163 766ft 0kts
05-Oct-20 13:30 34.202022 -118.357348 169 757ft 101kts
05-Oct-20 13:31 34.159952 -118.367075 215 2358ft 183kts
05-Oct-20 13:32 34.112849 -118.399260 236 4138ft 219kts
05-Oct-20 13:33 34.142355 -118.457220 348 4376ft 255kts
05-Oct-20 13:34 34.213373 -118.467804 355 4793ft 258kts
05-Oct-20 13:35 34.250334 -118.408378 96 5125ft 263kts
05-Oct-20 13:36 34.253104 -118.329067 42 5208ft 233kts
05-Oct-20 13:37 34.299953 -118.340919 320 5439ft 170kts
05-Oct-20 13:38 34.319222 -118.314108 97 6338ft 146kts
05-Oct-20 13:39 34.313259 -118.266215 98 7123ft 142kts
05-Oct-20 13:40 34.306759 -118.230898 184 8095ft 133kts
05-Oct-20 13:41 34.255325 -118.243443 193 8903ft 230kts
05-Oct-20 13:42 34.189293 -118.262918 201 9696ft 255kts
05-Oct-20 13:43 34.172047 -118.338994 281 10497ft 266kts
05-Oct-20 13:44 34.210513 -118.408041 354 11314ft 271kts
05-Oct-20 13:45 34.252975 -118.351017 94 12106ft 264kts
05-Oct-20 13:46 34.267100 -118.265346 63 12879ft 271kts
05-Oct-20 13:47 34.311676 -118.189192 54 13068ft 286kts
05-Oct-20 13:48 34.361046 -118.112374 53 13064ft 291kts
05-Oct-20 13:49 34.406720 -118.042032 53 13547ft 240kts
05-Oct-20 13:50 34.446625 -117.980305 53 14373ft 229kts
05-Oct-20 13:51 34.485950 -117.919448 53 15166ft 229kts
05-Oct-20 13:52 34.525442 -117.858174 54 15967ft 231kts
05-Oct-20 13:53 34.565821 -117.795792 54 16769ft 249kts
05-Oct-20 13:54 34.605270 -117.724072 65 17555ft 267kts
05-Oct-20 13:55 34.632122 -117.638807 69 18355ft 273kts
05-Oct-20 13:56 34.659277 -117.551698 69 19157ft 279kts
05-Oct-20 13:57 34.687405 -117.462764 70 19959ft 285kts
05-Oct-20 13:58 34.716117 -117.371540 69 20758ft 292kts
05-Oct-20 13:59 34.745262 -117.278858 69 21557ft 296kts
05-Oct-20 14:00 34.774864 -117.184262 70 22358ft 302kts
05-Oct-20 14:01 34.805182 -117.087082 70 23028ft 313kts
05-Oct-20 14:02 34.836935 -116.985226 69 23075ft 329kts
05-Oct-20 14:03 34.869616 -116.879824 70 23073ft 334kts
05-Oct-20 14:04 34.902483 -116.773205 70 23069ft 336kts
05-Oct-20 14:05 34.935416 -116.666274 70 23064ft 336kts
05-Oct-20 14:06 34.971642 -116.561341 64 23052ft 337kts
05-Oct-20 14:07 35.026088 -116.468448 53 23052ft 337kts
05-Oct-20 14:08 35.076599 -116.372557 66 23046ft 337kts
05-Oct-20 14:09 35.121119 -116.275954 59 22684ft 313kts
05-Oct-20 14:10 35.165184 -116.189940 59 21978ft 270kts
05-Oct-20 14:11 35.201355 -116.120162 57 21280ft 225kts
05-Oct-20 14:12 35.233590 -116.057959 57 20580ft 211kts
05-Oct-20 14:13 35.266539 -115.994316 57 19728ft 223kts
05-Oct-20 14:14 35.298994 -115.931291 56 18828ft 213kts
05-Oct-20 14:15 35.329950 -115.871237 57 17932ft 206kts
05-Oct-20 14:16 35.360082 -115.812589 57 17031ft 201kts
05-Oct-20 14:17 35.389475 -115.755338 58 16132ft 196kts
05-Oct-20 14:18 35.418148 -115.699393 58 15230ft 191kts
05-Oct-20 14:19 35.446202 -115.644592 58 14327ft 187kts
05-Oct-20 14:20 35.473425 -115.591272 58 13427ft 182kts
05-Oct-20 14:21 35.499927 -115.539038 59 12528ft 178kts
05-Oct-20 14:22 35.530878 -115.493039 52 11622ft 172kts
05-Oct-20 14:23 35.563176 -115.449631 48 10625ft 171kts
05-Oct-20 14:25 35.594063 -115.408339 47 10064ft 150kts
05-Oct-20 14:26 35.620277 -115.372736 47 10051ft 133kts
05-Oct-20 14:27 35.645400 -115.339229 45 10051ft 148kts
05-Oct-20 14:28 35.676826 -115.296535 47 10045ft 179kts
05-Oct-20 14:29 35.711899 -115.253884 26 10051ft 183kts
05-Oct-20 14:30 35.758716 -115.230446 19 9078ft 170kts
05-Oct-20 14:31 35.804289 -115.208903 20 8167ft 180kts
05-Oct-20 14:32 35.847788 -115.187671 24 8043ft 156kts
05-Oct-20 14:33 35.887839 -115.170360 19 8050ft 151kts
05-Oct-20 14:34 35.926970 -115.151729 23 8049ft 150kts
05-Oct-20 14:35 35.967052 -115.133794 25 8050ft 166kts
05-Oct-20 14:36 36.012018 -115.112589 21 7456ft 168kts
05-Oct-20 14:37 36.048613 -115.094058 20 6470ft 122kts
05-Oct-20 14:38 36.077034 -115.077532 23 5826ft 112kts
05-Oct-20 14:39 36.104436 -115.061969 20 5038ft 126kts
05-Oct-20 14:40 36.137141 -115.045583 30 3957ft 124kts
05-Oct-20 14:41 36.164682 -115.045568 285 3162ft 120kts
05-Oct-20 14:42 36.148169 -115.074355 205 2528ft 116kts
05-Oct-20 14:42 36.139234 -115.101852 266 2398ft 100kts
05-Oct-20 14:44 36.125977 -115.136978 233 2397ft 96kts
05-Oct-20 14:45 36.101308 -115.155156 212 2188ft 107kts
05-Oct-20 14:45 36.089436 -115.163647 290 2144ft 0kts
05-Oct-20 14:46 36.089436 -115.163647 290 2144ft 0kts
05-Oct-20 14:47 36.088922 -115.166091 177 2145ft 0kts
05-Oct-20 14:48 36.088922 -115.166091 177 2145ft 0kts
05-Oct-20 14:49 36.088922 -115.166091 177 2145ft 0kts
05-Oct-20 14:50 36.088922 -115.166091 177 2145ft 0kts
05-Oct-20 14:51 36.088922 -115.166091 177 2145ft 0kts
05-Oct-20 14:52 36.088922 -115.166091 177 2145ft 0kts
05-Oct-20 14:53 36.088922 -115.166091 177 2145ft 0kts
05-Oct-20 14:54 36.088922 -115.166091 177 2145ft 0kts
05-Oct-20 14:55 36.088922 -115.166091 177 2145ft 0kts
05-Oct-20 14:56 36.088922 -115.166091 177 2145ft 0kts
05-Oct-20 14:57 36.088922 -115.166091 177 2145ft 0kts
05-Oct-20 14:58 36.088922 -115.166091 177 2145ft 0kts
05-Oct-20 14:59 36.088922 -115.166091 177 2145ft 0kts

Navigation Log

Ident Type
Flight plan parsing failed, navigation log unavailable